Tiempo atmosférico en la estación meteorológica de Jerez De Los Caballeros, Badajoz (381 m.)



Fecha
DESCASC
Temp. máxima en grados centígrados (hora)
DESCASC
Temp. mínima en grados centígrados (hora)
DESCASC
Temp. media en grados centígrados
DESCASC
Racha de viento máxima en m/sg (hora)
DESCASC
Velocidad máxima media en intervalos de 10 minutos(hora)
DESCASC
Precipitaciones diarias en mm
DESCASC
Precipitaciones de 00:00 a 06:00 en mm
DESCASC
Precipitaciones de 06:00 a 12:00 en mm
DESCASC
Precipitaciones de 12:00 a 18:00 en mm
DESCASC
Precipitaciones de 18:00 a 24:00 en mm
DESCASC
05-04-2020 19.1 (15:40) 11.6 (08:30) 15.4 12.5 (16:40) 8.06 (14:40) 5.2 0 0 0 5.2
04-04-2020 16.9 (15:10) 9.7 (08:20) 13.3 10.56 (14:00) 8.33 (06:10) 0.4 0 0 0.2 0.2
03-04-2020 21.4 (18:00) 4.4 (08:00) 12.9 5 (22:20) 2.78 (17:40) 0 0 0 0 0
02-04-2020 16 (19:10) 6.1 (00:00) 11 9.44 (14:20) 6.94 (14:20) 6.4 6.4 0 0 0
01-04-2020 12.5 (17:30) 2.5 (00:00) 7.5 13.89 (14:40) 7.5 (14:40) 4.2 0 0 2 2.2
31-03-2020 15.2 (16:20) 7.4 (00:00) 11.3 13.33 (16:20) 9.72 (16:00) 10.6 6.4 2.2 2 0
30-03-2020 15.6 (14:10) 5.7 (00:00) 10.7 11.39 (15:50) 7.78 (15:50) 3.6 0 0 3.2 0.4
29-03-2020 18.9 (15:30) 4.9 (00:00) 11.9 5 (14:10) 3.33 (19:00) 1 0 0 1 0
28-03-2020 17.4 (17:20) 3.9 (00:00) 10.6 9.72 (02:30) 7.5 (01:40) 0 0 0 0 0
27-03-2020 15.5 (16:00) 6.6 (00:00) 11 8.61 (23:00) 7.22 (23:00) 0 0 0 0 0
26-03-2020 19 (16:10) 8.4 (00:00) 13.7 13.61 (16:40) 9.17 (17:40) 0 0 0 0 0
25-03-2020 18.8 (15:20) 9.1 (00:00) 13.9 9.17 (00:30) 6.67 (00:50) 0 0 0 0 0
24-03-2020 17.8 (14:30) 7.8 (00:00) 12.8 15.56 (11:20) 12.5 (11:00) 0 0 0 0 0
23-03-2020 16.1 (16:20) 8.1 (00:00) 12.1 14.44 (16:50) 9.72 (16:50) 1.2 0 0 0.2 1
22-03-2020 15.8 (18:00) 7.4 (07:50) 11.6 8.89 (09:30) 7.5 (09:30) 0.6 0.6 0 0 0
21-03-2020 14.4 (13:40) 7.4 (00:00) 10.9 10.83 (14:20) 7.5 (14:30) 17.6 7.2 0 6 4.4
20-03-2020 14.9 (12:40) 9.8 (00:00) 12.3 11.39 (20:20) 7.78 (20:30) 22.8 0 0 3.2 19.6
19-03-2020 19.3 (16:00) 7.5 (00:00) 13.4 9.72 (00:20) 8.06 (10:30) 0 0 0 0 0
18-03-2020 20.9 (16:30) 11 (00:00) 15.9 17.5 (05:50) 12.78 (05:40) 0 0 0 0 0
17-03-2020 16.1 (17:30) 5.1 (00:00) 10.6 18.33 (12:30) 13.61 (12:30) 0.6 0 0.6 0 0
16-03-2020 12.7 (13:30) 2.7 (00:00) 7.7 15.56 (14:40) 9.17 (14:40) 2.2 0 0 0 2.2
15-03-2020 21.9 (15:10) 8 (00:00) 14.9 14.17 (22:30) 10 (17:40) 0 0 0 0 0
14-03-2020 25.5 (15:40) 6.5 (00:00) 16 8.33 (18:00) 6.39 (18:00) 0 0 0 0 0
13-03-2020 20.2 (16:30) 9.6 (09:10) 14.9 8.06 (16:50) 5.28 (16:40) 0 0 0 0 0
12-03-2020 24.4 (16:10) 10.1 (00:00) 17.3 9.72 (15:40) 6.67 (15:10) 0 0 0 0 0
11-03-2020 29.5 (15:20) 8.7 (00:00) 19.1 5.28 (16:30) 3.89 (16:30) 0 0 0 0 0
10-03-2020 26.7 (16:00) 6.4 (00:00) 16.6 8.06 (10:20) 6.39 (10:20) 0 0 0 0 0
09-03-2020 21.1 (15:40) 7.3 (00:00) 14.2 9.17 (17:00) 5.83 (16:50) 0 0 0 0 0

Gráficas

Temp. máximas Temp. mínimas Temp. medias Precipitaciones Rachas de viento máximas Velocidades máximas media en intervalos de 10 minutos

Datos horarios

Fecha y hora oficial Temperatura (ºC) Velocidad del viento (km/h) Dirección del viento Racha (km/h) Dirección de racha Precipitación (mm) Presión (hPa) Tendencia (hPa) Humedad (%)
2020-04-07 23:00:00 15.7 3 Este 4 Este 0 978.2 0.7 78
2020-04-07 22:00:00 16.2 2 Norte 10 Sur 0 977.8 0.5 77
2020-04-07 21:00:00 17.1 9 Sur 11 Sur 0 977.5 0.2 73
2020-04-07 20:00:00 18.4 9 Sudoeste 15 Sudoeste 0 977.5 0 68
2020-04-07 19:00:00 19.1 10 Sudoeste 15 Sudoeste 0 977.3 -0.5 66
2020-04-07 18:00:00 19.3 7 Sudoeste 15 Sudoeste 0 977.3 -0.8 65
2020-04-07 17:00:00 18.8 8 Sudoeste 23 Sudoeste 0 977.5 -0.8 67
2020-04-07 16:00:00 18.1 14 Sudoeste 31 Sudoeste 0 977.8 -0.7 73
2020-04-07 15:00:00 17.5 15 Sudoeste 24 Sudoeste 0 978.1 -0.7 72
2020-04-07 14:00:00 17.3 13 Sudoeste 21 Sudoeste 0 978.3 0.2 72
2020-04-07 13:00:00 16.9 6 Sur 12 Sudeste 0.2 978.5 0.9 82
2020-04-07 12:00:00 15.9 4 Sudoeste 10 Este 0 978.8 1.4 81
2020-04-07 11:00:00 14.5 4 Este 16 Nordeste 0.4 978.1 1.2 86
2020-04-07 10:00:00 13.4 10 Nordeste 17 Nordeste 0.4 977.6 1.1 89
2020-04-07 09:00:00 13.4 6 Nordeste 9 Nordeste 0.4 977.4 1 89
2020-04-07 08:00:00 13.6 3 Oeste 9 Sudeste 0 976.9 0.4 83
2020-04-07 07:00:00 13.6 4 Nordeste 7 Oeste 0 976.5 -0.5 83
2020-04-07 06:00:00 13.9 4 Sudoeste 8 Sudoeste 0 976.4 -0.5 82
2020-04-07 05:00:00 14 4 Oeste 10 Oeste 0 976.5 -0.4 82
2020-04-07 04:00:00 14.3 3 Oeste 12 Sur 0 977 0.1 80
2020-04-07 03:00:00 14.2 5 Sudoeste 7 Oeste 0 976.9 -0.3 81
2020-04-07 02:00:00 14.5 3 Oeste 7 Oeste 0 976.9 -0.1 81
2020-04-07 01:00:00 14.9 4 Oeste 13 Sur 0 976.9 0.4 79
2020-04-07 00:00:00 14.7 3 Sudoeste 13 Oeste 0 977.2 1.1 81
2020-04-06 23:00:00 14.9 8 Sudoeste 11 Oeste 0 977 1 80
2020-04-06 22:00:00 15.1 5 Oeste 13 Sur 0 976.5 0.9 80
2020-04-06 21:00:00 16.2 5 Sudoeste 19 Sudoeste 0 976.1 0.5 75
2020-04-06 20:00:00 17 11 Sur 26 Sur 0 976 0.2 74
2020-04-06 19:00:00 17.6 13 Sur 24 Sur 0 975.6 -0.6 72
2020-04-06 18:00:00 18 16 Sur 28 Sudoeste 0 975.6 -0.8 72
2020-04-06 17:00:00 18 18 Sur 31 Sudoeste 0 975.8 -0.5 70
2020-04-06 16:00:00 18.2 22 Sur 34 Sudoeste 0 976.2 -0.2 68
2020-04-06 15:00:00 18.4 21 Sudoeste 33 Sur 0 976.4 0 69
2020-04-06 14:00:00 18.1 18 Sudoeste 33 Sudoeste 0 976.3 0.4 70
2020-04-06 13:00:00 17.5 22 Sur 33 Sur 0 976.4 1.1 67
2020-04-06 12:00:00 16.7 20 Sur 33 Sudoeste 0 976.4 1.7 72
2020-04-06 11:00:00 16.1 15 Sudoeste 21 Sudoeste 0 975.9 1.8 78
2020-04-06 10:00:00 15 4 Sudoeste 12 Sur 0 975.3 1.9 88
2020-04-06 09:00:00 12.9 7 Este 9 Este 0 974.7 1.4 91
2020-04-06 08:00:00 12.9 3 Oeste 9 Oeste 0 974.1 0.6 91
2020-04-06 07:00:00 12.9 2 Noroeste 9 Oeste 0 973.4 -0.1 91
2020-04-06 06:00:00 13.3 8 Oeste 11 Oeste 0 973.3 -0.2 91
2020-04-06 05:00:00 13.5 5 Oeste 10 Oeste 0 973.5 -0.1 91
2020-04-06 04:00:00 13.8 6 Sudoeste 16 Sudoeste 0 973.5 0.1 91
2020-04-06 03:00:00 14.1 12 Sudoeste 20 Sudoeste 0 973.5 0.4 92
2020-04-06 02:00:00 14.2 12 Sudoeste 30 Sudoeste 0.4 973.6 1 92
2020-04-06 01:00:00 14.1 14 Sudoeste 27 Oeste 2.8 973.4 1.2 91
2020-04-06 00:00:00 14.2 12 Sudoeste 17 Sudoeste 4.6 973.1 1.5 90
2020-04-05 23:00:00 14.6 9 Sudoeste 19 Sudoeste 0.4 972.6 1.5 87
2020-04-05 22:00:00 15.1 13 Sur 27 Sur 0.2 972.2 1.1 84
2020-04-05 21:00:00 15.7 18 Sur 34 Sudoeste 0 971.6 0.9 78
2020-04-05 20:00:00 16.1 15 Sur 37 Sur 0 971.1 0.1 75
2020-04-05 19:00:00 16.3 22 Sur 42 Sur 0 971.1 -0.2 76
2020-04-05 18:00:00 16.8 26 Sur 44 Sur 0 970.7 -0.6 71
2020-04-05 17:00:00 17 19 Sudoeste 45 Sudoeste 0 971 -0.7 68
2020-04-05 16:00:00 18.1 26 Sur 44 Sur 0 971.3 -0.2 63
2020-04-05 15:00:00 17.5 26 Sur 43 Sudoeste 0 971.3 -0.6 64
2020-04-05 14:00:00 17.3 20 Sur 39 Sur 0 971.7 -0.2 63
2020-04-05 13:00:00 18 21 Sur 36 Sudeste 0 971.5 0 60
2020-04-05 12:00:00 17.1 10 Sur 21 Sur 0 971.9 0.4 63
2020-04-05 11:00:00 15.9 10 Sur 24 Sudeste 0 971.9 0.8 64
2020-04-05 10:00:00 14.6 12 Este 22 Este 0 971.5 1 68
2020-04-05 09:00:00 12.1 6 Este 26 Sur 0 971.5 1.7 77
2020-04-05 08:00:00 11.9 9 Sudoeste 18 Sudoeste 0 971.1 1.6 75
2020-04-05 07:00:00 12 9 Oeste 21 Sudoeste 0 970.5 0.3 74
2020-04-05 06:00:00 12.4 2 Oeste 15 Nordeste 0 969.8 -0.2 68
2020-04-05 05:00:00 11.9 9 Nordeste 17 Nordeste 0 969.5 -0.7 72
2020-04-05 04:00:00 12.8 6 Este 13 Este 0 970.2 0.1 65
2020-04-05 03:00:00 12.7 5 Este 16 Nordeste 0 970 -0.3 67
2020-04-05 02:00:00 12.4 9 Nordeste 19 Nordeste 0 970.2 -0.2 71
2020-04-05 01:00:00 12.3 15 Nordeste 19 Este 0 970.1 0.4 72
2020-04-05 00:00:00 13 8 Este 15 Este 0 970.3 1.2 70
2020-04-04 23:00:00 13.9 9 Este 14 Sudeste 0 970.4 1.5 68
2020-04-04 22:00:00 14.6 5 Este 16 Nordeste 0 969.7 1.2 65
2020-04-04 21:00:00 14.6 6 Nordeste 9 Este 0 969.1 0.3 65
2020-04-04 20:00:00 15 5 Este 18 Nordeste 0 968.9 0.4 68
2020-04-04 19:00:00 15 13 Nordeste 18 Nordeste 0.2 968.5 0 64
2020-04-04 18:00:00 15.4 3 Sudoeste 19 Sudeste 0.2 968.8 0.5 66
2020-04-04 17:00:00 15.9 9 Sudeste 23 Sur 0 968.5 0.1 60
2020-04-04 16:00:00 16.9 12 Sudeste 33 Sudeste 0 968.5 0.1 52
2020-04-04 15:00:00 16.6 19 Sudeste 34 Sudeste 0 968.3 -0.2 49
2020-04-04 14:00:00 15.7 22 Este 38 Sudeste 0 968.4 0.1 47
2020-04-04 13:00:00 16.5 19 Este 32 Este 0 968.4 0.4 49
2020-04-04 12:00:00 14.6 21 Este 29 Este 0 968.5 1.2 55
2020-04-04 11:00:00 12.8 20 Nordeste 29 Nordeste 0 968.3 1 58
2020-04-04 10:00:00 11.6 16 Nordeste 35 Nordeste 0 968 0.4 61
2020-04-04 09:00:00 11.4 25 Nordeste 36 Nordeste 0 967.3 0 58
2020-04-04 08:00:00 10.1 17 Nordeste 28 Nordeste 0 967.3 -0.7 62
2020-04-04 07:00:00 10.4 20 Nordeste 37 Nordeste 0 967.6 -0.8 63
2020-04-04 06:00:00 10.6 26 Nordeste 34 Nordeste 0 967.3 -1.5 64
2020-04-04 05:00:00 10.3 15 Nordeste 24 Nordeste 0 968 -1.3 72
2020-04-04 04:00:00 10.6 14 Este 24 Nordeste 0 968.4 -1.2 75
2020-04-04 03:00:00 11.8 21 Nordeste 29 Nordeste 0 968.8 -0.9 70
2020-04-04 02:00:00 12.5 14 Este 24 Nordeste 0 969.3 -0.5 66
2020-04-04 01:00:00 13.4 14 Este 20 Nordeste 0 969.6 0.1 62
2020-04-04 00:00:00 14.6 8 Nordeste 12 Nordeste 0 969.7 0.7 55
2020-04-03 23:00:00 15.4 3 Nordeste 18 Sudeste 0 969.8 0.8 52
2020-04-03 22:00:00 16.1 3 Este 7 Sudeste 0 969.5 0.6 53
2020-04-03 21:00:00 17.3 4 Este 9 Sudeste 0 969 0.1 50
2020-04-03 20:00:00 18.5 6 Sur 11 Este 0 969 -0.3 47
2020-04-03 19:00:00 19.8 4 Sudeste 15 Este 0 968.9 -0.9 38
2020-04-03 18:00:00 20.6 6 Este 16 Oeste 0 968.9 -1.6 41
2020-04-03 17:00:00 20.6 4 Este 16 Sudeste 0 969.3 -1.8 42
2020-04-03 16:00:00 20.3 9 Sudoeste 17 Sur 0 969.8 -1.9 46
2020-04-03 15:00:00 19.6 6 Este 14 Este 0 970.5 -1.7 45
2020-04-03 14:00:00 17.8 4 Noroeste 14 Sudoeste 0 971.1 -1 45
2020-04-03 13:00:00 17.3 4 Oeste 9 Este 0 971.7 -0.2 52
2020-04-03 12:00:00 14.1 4 Nordeste 8 Este 0 972.2 0.7 72
2020-04-03 11:00:00 10.2 6 Este 10 Nordeste 0 972.1 0.9 86
2020-04-03 10:00:00 6.3 3 Sudeste 9 Este 0 971.9 1.3 92
2020-04-03 09:00:00 5.9 2 Norte 3 Norte 0 971.5 0.8 92
2020-04-03 08:00:00 4.5 0 Calma 13 Este 0 971.2 0.7 92
2020-04-03 07:00:00 5.4 8 Este 10 Este 0 970.6 -0.4 91
2020-04-03 06:00:00 6.6 3 Este 7 Este 0 970.7 -0.4 90
2020-04-03 05:00:00 6.5 6 Sudoeste 9 Sudoeste 0 970.5 -1.1 85
2020-04-03 04:00:00 7.6 7 Sudoeste 12 Sudoeste 0 971 -0.6 81
2020-04-03 03:00:00 9 3 Este 10 Sudoeste 0 971.1 -0.3 80
2020-04-03 02:00:00 8.9 5 Sur 10 Sudeste 0 971.6 0.4 78
2020-04-03 01:00:00 10 5 Sudoeste 8 Oeste 0 971.6 0.9 74
2020-04-03 00:00:00 11.5 5 Oeste 12 Oeste 0 971.4 1.4 68
2020-04-02 23:00:00 11.4 6 Oeste 8 Sudoeste 0 971.2 1.5 67
2020-04-02 22:00:00 12.4 8 Oeste 15 Oeste 0 970.7 1.3 63
2020-04-02 21:00:00 13.3 13 Oeste 15 Norte 0 970 0.9 59
2020-04-02 20:00:00 15.3 10 Noroeste 22 Noroeste 0 969.7 0.6 48
2020-04-02 19:00:00 15.6 10 Norte 22 Norte 0 969.4 0.4 49
2020-04-02 18:00:00 15.4 14 Norte 30 Norte 0 969.1 0.3 45
2020-04-02 17:00:00 14.8 12 Nordeste 23 Nordeste 0 969.1 0.4 51
2020-04-02 16:00:00 14 6 Norte 27 Nordeste 0 969 0.1 56
2020-04-02 15:00:00 13.5 21 Nordeste 34 Nordeste 0 968.8 0.1 59
2020-04-02 14:00:00 12.1 18 Nordeste 30 Nordeste 0 968.7 0.8 63
2020-04-02 13:00:00 11.1 13 Nordeste 26 Norte 0 968.9 1.5 67
2020-04-02 12:00:00 9.5 12 Norte 30 Norte 0 968.7 2.4 75
2020-04-02 11:00:00 8.9 15 Norte 28 Nordeste 0 967.9 2.2 75
2020-04-02 10:00:00 7.9 8 Sudeste 21 Nordeste 0 967.4 2 85
2020-04-02 09:00:00 7 10 Este 21 Norte 0 966.3 0.9 86
2020-04-02 08:00:00 6.1 5 Nordeste 8 Este 0 965.7 0.4 90
2020-04-02 07:00:00 6.4 5 Nordeste 10 Este 0 965.4 -0.2 90
2020-04-02 06:00:00 7 4 Sudoeste 12 Norte 0 965.4 -0.6 84
2020-04-02 05:00:00 6.9 7 Oeste 14 Noroeste 1 965.3 -0.8 84
2020-04-02 04:00:00 6.2 17 Oeste 33 Sudoeste 5.4 965.6 -0.8 87
2020-04-02 03:00:00 7.9 8 Sudoeste 21 Sudoeste 0 966 -0.5 90
2020-04-02 02:00:00 8.8 13 Sudoeste 22 Sudoeste 0 966.1 -0.7 89
2020-04-02 01:00:00 9.1 8 Sudoeste 12 Sudoeste 0 966.4 -0.2 90
2020-04-02 00:00:00 9.2 5 Este 10 Sur 0.2 966.5 0.8 89
2020-04-01 23:00:00 9.2 6 Sur 12 Sur 0.6 966.8 0.9 89
2020-04-01 22:00:00 9.4 7 Sudoeste 26 Oeste 1.2 966.6 0.5 86
2020-04-01 21:00:00 9.7 8 Nordeste 12 Nordeste 0 965.7 -0.7 81
2020-04-01 20:00:00 10.3 8 Sudeste 22 Sur 0.2 965.9 -1.1 78
2020-04-01 19:00:00 11.9 15 Sur 24 Sur 0 966.1 -1.3 67
2020-04-01 18:00:00 11.9 8 Sudeste 22 Sur 0 966.4 -1.3 69
2020-04-01 17:00:00 11.1 5 Sudeste 14 Sudoeste 0.6 967 -0.3 76
2020-04-01 16:00:00 10.7 10 Sur 27 Sudoeste 0.2 967.4 -0.5 76
2020-04-01 15:00:00 9.6 7 Sudoeste 50 Sudoeste 1.2 967.7 -0.5 81
2020-04-01 14:00:00 11 9 Noroeste 30 Oeste 0 967.3 -0.8 70
2020-04-01 13:00:00 10.5 11 Sudoeste 18 Sudoeste 0 967.9 0 69
2020-04-01 12:00:00 9.8 4 Sudoeste 9 Sudoeste 0 968.2 0.8 73
2020-04-01 11:00:00 7.5 7 Este 10 Este 0 968.1 1.1 86
2020-04-01 10:00:00 5 5 Sudoeste 13 Este 0 967.9 1.5 92
2020-04-01 09:00:00 3 8 Este 13 Este 0 967.4 1.2 92
2020-04-01 08:00:00 2.9 3 Sur 9 Este 0 967 0.8 91
2020-04-01 07:00:00 4 5 Este 7 Este 0 966.4 0.3 89
2020-04-01 06:00:00 5 5 Nordeste 6 Nordeste 0 966.2 0 89
2020-04-01 05:00:00 5.5 3 Sudoeste 7 Sudoeste 0 966.2 -0.2 87
2020-04-01 04:00:00 5.9 5 Sudoeste 10 Sudoeste 0 966.1 -0.1 85
2020-04-01 03:00:00 6.4 6 Sudoeste 16 Sudoeste 0 966.2 0.5 82
2020-04-01 02:00:00 7.2 8 Sudoeste 14 Sudoeste 0 966.4 1.2 83
2020-04-01 01:00:00 7.5 8 Sudoeste 15 Oeste 0 966.2 1.9 84
2020-04-01 00:00:00 7.4 7 Sudoeste 10 Sudoeste 0 965.7 2.5 86
2020-03-31 23:00:00 8.4 8 Sudoeste 13 Sudoeste 0 965.2 3 83
2020-03-31 22:00:00 8.7 10 Sudoeste 24 Oeste 0 964.3 2.8 79
2020-03-31 21:00:00 9.6 18 Sudoeste 31 Sudoeste 0 963.2 2.5 78
2020-03-31 20:00:00 11 24 Oeste 34 Sudoeste 0 962.2 2.7 75
2020-03-31 19:00:00 11.9 26 Sudoeste 40 Sudoeste 0 961.5 2.4 77
2020-03-31 18:00:00 12.2 26 Oeste 44 Oeste 0 960.7 1.4 72
2020-03-31 17:00:00 13.8 31 Oeste 48 Sudoeste 0 959.5 0.4 69
2020-03-31 16:00:00 14.6 35 Sudoeste 46 Sudoeste 0 959.1 0.3 72
2020-03-31 15:00:00 13.4 10 Sudoeste 33 Sudoeste 1.2 959.3 0.3 83
2020-03-31 14:00:00 12.2 27 Sudoeste 41 Sudoeste 0.6 959.1 0.2 85
2020-03-31 13:00:00 14.1 19 Sur 31 Sur 0.2 958.8 0.4 76
2020-03-31 12:00:00 12.4 11 Sur 22 Sur 0.2 959 0.9 84
2020-03-31 11:00:00 10.7 5 Sur 10 Sudoeste 0.8 958.9 1.3 87
2020-03-31 10:00:00 10.7 4 Sur 8 Sur 0 958.4 1.2 87
2020-03-31 09:00:00 9.6 3 Nordeste 4 Nordeste 0 958.1 1 91
2020-03-31 08:00:00 9.3 2 Sudeste 4 Sudoeste 0.2 957.6 0.2 89
2020-03-31 07:00:00 9.4 5 Nordeste 10 Nordeste 1 957.2 -0.5 90
2020-03-31 06:00:00 9.6 7 Nordeste 12 Este 3 957.1 -1.1 90
2020-03-31 05:00:00 9.7 9 Nordeste 22 Nordeste 1 957.4 -1.7 88
2020-03-31 04:00:00 9.4 14 Nordeste 27 Nordeste 1.4 957.7 -2.4 89
2020-03-31 03:00:00 9.3 18 Nordeste 28 Nordeste 0.4 958.2 -2.7 87
2020-03-31 02:00:00 9.5 21 Nordeste 31 Nordeste 0 959.1 -2.3 83
2020-03-31 01:00:00 9.2 18 Nordeste 37 Nordeste 0.6 960.1 -1.8 85
2020-03-31 00:00:00 10.1 13 Nordeste 21 Nordeste 0 960.9 -1.1 77
2020-03-30 23:00:00 9.9 7 Nordeste 19 Nordeste 0 961.4 -1.2 80
2020-03-30 22:00:00 10 16 Nordeste 22 Este 0 961.9 -1 79
2020-03-30 21:00:00 10.3 13 Este 21 Este 0 962 -1.9 80
2020-03-30 20:00:00 11.2 6 Nordeste 21 Sudeste 0 962.6 -1.8 76
2020-03-30 19:00:00 10.9 9 Nordeste 21 Este 0.4 962.9 -2.2 82
2020-03-30 18:00:00 10.5 4 Norte 25 Sur 1 963.9 -1.6 85
2020-03-30 17:00:00 10.4 15 Sur 35 Sudoeste 2.2 964.4 -2 85
2020-03-30 16:00:00 11.5 28 Sudoeste 41 Sudoeste 0 965.1 -1.6 76
2020-03-30 15:00:00 14.7 19 Sudoeste 25 Sudoeste 0 965.5 -2.1 61
2020-03-30 14:00:00 15.4 7 Sudoeste 14 Sudoeste 0 966.4 -1.4 60
2020-03-30 13:00:00 14 4 Nordeste 11 Este 0 966.7 -1.1 74
2020-03-30 12:00:00 12.1 5 Sudeste 12 Este 0 967.6 -0.2 85
2020-03-30 11:00:00 9.7 3 Sudeste 10 Este 0 967.8 -0.5 92
2020-03-30 10:00:00 8.3 3 Sudeste 11 Este 0 967.8 -0.5 93
2020-03-30 09:00:00 6.1 9 Este 12 Este 0 967.8 -0.7 93
2020-03-30 08:00:00 5.8 6 Sudeste 8 Sudeste 0 968.3 -0.9 92
2020-03-30 07:00:00 6.8 3 Sudeste 5 Sudoeste 0 968.3 -1.6 92
2020-03-30 06:00:00 6.6 4 Sudoeste 8 Este 0 968.5 -2.2 91
2020-03-30 05:00:00 7.9 3 Este 5 Este 0 969.2 -1.8 90
2020-03-30 04:00:00 7.8 4 Nordeste 6 Nordeste 0 969.9 -1.6 90
2020-03-30 03:00:00 9.5 3 Noroeste 7 Norte 0 970.7 -1 88
2020-03-30 02:00:00 8.9 4 Nordeste 13 Sudeste 0 971 -1 88
2020-03-30 01:00:00 10.7 3 Sur 8 Oeste 0 971.5 -0.5 82
2020-03-30 00:00:00 11.4 7 Este 8 Este 0 971.7 0 81
2020-03-29 23:00:00 12.6 5 Este 9 Este 0 972 0.5 72
2020-03-29 22:00:00 13.6 0 Calma 11 Este 0 972 0.5 68
2020-03-29 21:00:00 13.2 10 Este 13 Este 0 971.7 -0.1 73
2020-03-29 20:00:00 15.1 7 Norte 18 Noroeste 0 971.5 -0.4 60
2020-03-29 19:00:00 15.1 12 Noroeste 17 Norte 0 971.5 -0.9 64
2020-03-29 18:00:00 15.9 4 Este 15 Sudeste 1 971.8 -1.3 62
2020-03-29 17:00:00 16.9 6 Sudeste 11 Sur 0 971.9 -1.8 55
2020-03-29 16:00:00 18.1 6 Sur 13 Sur 0 972.4 -1.7 45
2020-03-29 15:00:00 18.3 5 Sudoeste 18 Sudoeste 0 973.1 -1.5 50
2020-03-29 14:00:00 18 3 Sudeste 14 Sudoeste 0 973.7 -1 51
2020-03-29 13:00:00 16.3 5 Noroeste 14 Oeste 0 974.1 -0.2 56
2020-03-29 12:00:00 14.6 8 Sudoeste 13 Sudoeste 0 974.6 0.2 62
2020-03-29 11:00:00 11.8 0 Calma 8 Nordeste 0 974.7 0.7 79
2020-03-29 10:00:00 8.4 4 Este 6 Este 0 974.3 0.5 87
2020-03-29 09:00:00 5.4 4 Sudeste 6 Sudeste 0 974.4 0.7 91
2020-03-29 08:00:00 5 4 Este 9 Este 0 974 0.2 90
2020-03-29 07:00:00 6.1 4 Este 6 Este 0 973.8 -0.3 88
2020-03-29 06:00:00 6.7 4 Nordeste 7 Este 0 973.7 -0.6 87
2020-03-29 05:00:00 7.3 2 Sur 6 Sudeste 0 973.8 -0.6 84
2020-03-29 03:00:00 9 2 Este 8 Este 0 974.3 0.4 77
2020-03-29 01:00:00 10.3 3 Sudoeste 4 Oeste 0 974.4 1 74
2020-03-29 00:00:00 11.5 2 Oeste 6 Oeste 0 974.2 1.4 67
2020-03-28 23:00:00 11.8 5 Sudoeste 13 Sudeste 0 973.9 1.9 67
2020-03-28 22:00:00 12.8 6 Sudoeste 14 Sudoeste 0 973.4 1.9 64
2020-03-28 21:00:00 14.3 8 Este 13 Nordeste 0 972.8 1.7 52
2020-03-28 20:00:00 15.1 10 Nordeste 12 Nordeste 0 972 1.1 47
2020-03-28 19:00:00 16.1 9 Nordeste 19 Este 0 971.5 0.7 46
2020-03-28 18:00:00 16.6 13 Nordeste 20 Este 0 971.1 0.1 42
2020-03-28 17:00:00 16.8 9 Nordeste 19 Este 0 970.9 -0.4 40
2020-03-28 16:00:00 17.1 6 Nordeste 25 Este 0 970.8 -0.6 39
2020-03-28 15:00:00 15.6 17 Este 27 Nordeste 0 971 -0.6 49
2020-03-28 14:00:00 15.5 15 Nordeste 21 Nordeste 0 971.3 -0.3 52
2020-03-28 13:00:00 14.8 10 Nordeste 21 Nordeste 0 971.4 0.1 57
2020-03-28 12:00:00 12.9 12 Este 26 Nordeste 0 971.6 0.9 64
2020-03-28 11:00:00 10.7 21 Nordeste 27 Nordeste 0 971.6 1.5 68
2020-03-28 10:00:00 8.4 21 Este 29 Nordeste 0 971.3 1.7 71
2020-03-28 09:00:00 6.8 20 Este 27 Este 0 970.7 1.6 76
2020-03-28 08:00:00 4.4 23 Este 27 Este 0 970.1 1.1 82
2020-03-28 07:00:00 3.9 22 Este 32 Este 0 969.6 0.7 84
2020-03-28 06:00:00 4.5 21 Este 28 Este 0 969.1 0.1 81
2020-03-28 05:00:00 4.6 21 Este 31 Este 0 969 0 81
2020-03-28 04:00:00 5.3 21 Este 30 Este 0 968.9 -0.2 77
2020-03-28 03:00:00 6.1 21 Nordeste 35 Nordeste 0 969 0 74
2020-03-28 02:00:00 7 27 Nordeste 33 Nordeste 0 969 0.7 71
2020-03-28 01:00:00 7.6 22 Nordeste 30 Este 0 969.1 1.1 73
2020-03-28 00:00:00 8.1 19 Este 30 Nordeste 0 969 1.6 74
2020-03-27 23:00:00 9.2 26 Nordeste 31 Nordeste 0 968.3 1.8 72
2020-03-27 22:00:00 9.4 13 Nordeste 18 Nordeste 0 968 2 72
2020-03-27 21:00:00 10.1 14 Nordeste 30 Nordeste 0 967.4 2.1 69
2020-03-27 20:00:00 10.9 22 Nordeste 28 Nordeste 0 966.5 1.4 65
2020-03-27 19:00:00 12.5 15 Nordeste 26 Nordeste 0 966 0.9 57
2020-03-27 18:00:00 13.4 18 Nordeste 26 Nordeste 0 965.3 0 62
2020-03-27 17:00:00 13.7 10 Nordeste 18 Nordeste 0 965.1 -0.4 61
2020-03-27 16:00:00 15.5 12 Sudoeste 26 Sur 0 965.1 -0.4 61
2020-03-27 15:00:00 14.3 17 Sudoeste 28 Sudoeste 0 965.3 -0.5 62
2020-03-27 14:00:00 13.2 16 Sudoeste 27 Sudoeste 0 965.5 -0.1 65
2020-03-27 13:00:00 12.9 9 Sur 17 Sur 0 965.5 0.1 68
2020-03-27 12:00:00 10.4 7 Sudoeste 15 Sur 0 965.8 1 71
2020-03-27 11:00:00 9 10 Sudoeste 17 Sudoeste 0 965.6 1.1 79
2020-03-27 10:00:00 7.9 7 Sudoeste 14 Sudoeste 0 965.4 1.3 82
2020-03-27 09:00:00 7.2 9 Sudoeste 21 Sudoeste 0 964.8 0.8 85
2020-03-27 08:00:00 6.8 13 Oeste 21 Oeste 0 964.5 0.4 86
2020-03-27 07:00:00 6.9 12 Sudoeste 23 Sudoeste 0 964.1 -0.2 84
2020-03-27 06:00:00 6.8 15 Sudoeste 23 Sudoeste 0 964 -0.7 85
2020-03-27 05:00:00 6.9 14 Oeste 23 Sudoeste 0 964.1 -1.5 88
2020-03-27 04:00:00 7 16 Sudoeste 21 Sudoeste 0 964.3 -1.4 87
2020-03-27 03:00:00 7.4 13 Oeste 22 Sudoeste 0 964.7 -1.1 87
2020-03-27 02:00:00 7.6 12 Sudoeste 15 Sudoeste 0 965.6 -0.3 87
2020-03-27 01:00:00 7.8 8 Sudoeste 22 Sudoeste 0 965.7 -0.4 84
2020-03-27 00:00:00 9.1 17 Sudoeste 35 Oeste 0 965.8 0 81
2020-03-26 23:00:00 10.3 26 Oeste 34 Oeste 0 965.9 0.4 76
2020-03-26 22:00:00 11.6 23 Oeste 33 Sudoeste 0 966.1 0.8 70
2020-03-26 21:00:00 12.8 20 Sudoeste 28 Sudoeste 0 965.8 0.8 63
2020-03-26 20:00:00 14.2 19 Oeste 35 Oeste 0 965.5 0.2 56
2020-03-26 19:00:00 16.4 25 Oeste 47 Sudoeste 0 965.3 -0.4 48
2020-03-26 18:00:00 17.7 33 Oeste 49 Sudoeste 0 965 -1.3 42
2020-03-26 17:00:00 18.7 28 Oeste 49 Sudoeste 0 965.3 -1.6 43
2020-03-26 16:00:00 18.8 26 Oeste 43 Oeste 0 965.7 -2 49
2020-03-26 15:00:00 17.4 23 Oeste 44 Sudoeste 0 966.3 -2 54
2020-03-26 14:00:00 16.7 24 Oeste 37 Sudoeste 0 966.9 -1.9 57
2020-03-26 13:00:00 15.2 23 Sudoeste 33 Sudoeste 0 967.7 -1.2 63
2020-03-26 12:00:00 13 19 Sudoeste 29 Sudoeste 0 968.3 -0.5 78
2020-03-26 11:00:00 11.1 18 Sudoeste 25 Sudoeste 0 968.8 0.1 82
2020-03-26 10:00:00 9.8 17 Sudoeste 23 Sudoeste 0 968.9 0.5 87
2020-03-26 09:00:00 8.8 14 Sudoeste 19 Sudoeste 0 968.8 0.5 92
2020-03-26 08:00:00 8.5 12 Sudoeste 22 Sudoeste 0 968.7 0.4 92
2020-03-26 07:00:00 8.9 15 Sudoeste 20 Sudoeste 0 968.4 -0.6 92
2020-03-26 06:00:00 9.2 14 Oeste 17 Sudoeste 0 968.3 -1.1 92
2020-03-26 05:00:00 9.5 11 Sudoeste 19 Sudoeste 0 968.3 -1.7 92
2020-03-26 04:00:00 9.9 12 Oeste 18 Oeste 0 969 -1.4 91
2020-03-26 03:00:00 10.4 8 Sudoeste 18 Oeste 0 969.4 -1.3 89
2020-03-26 02:00:00 11.5 12 Sudoeste 17 Sudoeste 0 970 -0.9 88
2020-03-26 01:00:00 12.2 13 Sudoeste 21 Sudoeste 0 970.4 -0.6 87
2020-03-26 00:00:00 12.8 14 Sudoeste 23 Sudoeste 0 970.7 0.2 85
2020-03-25 23:00:00 13.1 11 Oeste 18 Sudoeste 0 970.9 0.9 85
2020-03-25 22:00:00 13.4 12 Sudoeste 23 Sudoeste 0 971 1.1 83
2020-03-25 21:00:00 13.5 6 Oeste 18 Sudoeste 0 970.5 0.7 77
2020-03-25 20:00:00 14.3 10 Sudoeste 15 Sudoeste 0 970 -0.1 76
2020-03-25 19:00:00 16.1 4 Sudoeste 15 Sudoeste 0 969.9 -0.3 69
2020-03-25 18:00:00 17.2 12 Sudoeste 16 Sudoeste 0 969.8 -0.8 67
2020-03-25 17:00:00 16.8 8 Sur 14 Noroeste 0 970.1 -1.4 60
2020-03-25 16:00:00 17.6 10 Sudoeste 19 Sudoeste 0 970.2 -1.8 54
2020-03-25 15:00:00 18 8 Sudoeste 17 Sudoeste 0 970.6 -1.5 54
2020-03-25 14:00:00 16.4 12 Oeste 18 Oeste 0 971.5 -0.8 67
2020-03-25 13:00:00 16.2 12 Sudoeste 22 Sudoeste 0 972 -0.1 65
2020-03-25 12:00:00 17.7 13 Sudoeste 21 Sudoeste 0 972.1 0.5 63
2020-03-25 11:00:00 16.2 7 Sudoeste 15 Sudoeste 0 972.3 0.8 65
2020-03-25 10:00:00 12.9 9 Este 22 Este 0 972.1 1.2 68
2020-03-25 09:00:00 11.2 17 Este 19 Este 0 971.6 0.9 74
2020-03-25 08:00:00 9.8 11 Nordeste 25 Este 0 971.5 1.1 77
2020-03-25 07:00:00 9.8 8 Nordeste 20 Este 0 970.9 1 78
2020-03-25 06:00:00 9.5 18 Este 28 Este 0 970.7 0.7 80
2020-03-25 05:00:00 9.5 18 Este 25 Este 0 970.4 0.3 80
2020-03-25 04:00:00 9.9 19 Este 26 Este 0 969.9 -0.3 78
2020-03-25 03:00:00 10.2 17 Nordeste 31 Nordeste 0 970 0 76
2020-03-25 02:00:00 10.9 22 Nordeste 28 Nordeste 0 970.1 0.2 73
2020-03-25 01:00:00 11 21 Nordeste 33 Nordeste 0 970.2 1.1 72
2020-03-25 00:00:00 11.9 26 Nordeste 35 Este 0 970 1.9 70
2020-03-24 23:00:00 12.9 25 Nordeste 37 Nordeste 0 969.9 2.3 66
2020-03-24 22:00:00 14.1 30 Nordeste 42 Nordeste 0 969.1 2.2 62
2020-03-24 21:00:00 14.9 29 Nordeste 39 Nordeste 0 968.1 1.6 60
2020-03-24 20:00:00 15.3 24 Nordeste 36 Nordeste 0 967.6 1.5 59
2020-03-24 19:00:00 16 27 Nordeste 37 Nordeste 0 966.9 0.8 58
2020-03-24 18:00:00 16.4 25 Nordeste 40 Nordeste 0 966.5 0.4 56
2020-03-24 17:00:00 16.7 31 Nordeste 42 Nordeste 0 966.1 -0.2 53
2020-03-24 16:00:00 16.7 29 Nordeste 41 Nordeste 0 966.1 -0.5 51
2020-03-24 15:00:00 16.7 30 Nordeste 56 Este 0 966.1 -0.7 51
2020-03-24 14:00:00 16.5 32 Nordeste 46 Este 0 966.3 -0.1 52
2020-03-24 13:00:00 15.9 35 Nordeste 49 Nordeste 0 966.6 -0.2 55
2020-03-24 12:00:00 14.7 38 Nordeste 56 Este 0 966.8 0.2 60
2020-03-24 11:00:00 13.8 45 Nordeste 55 Nordeste 0 966.4 -0.1 66
2020-03-24 10:00:00 12.9 28 Este 49 Nordeste 0 966.8 0.2 72
2020-03-24 09:00:00 10.6 19 Este 27 Este 0 966.6 0.2 84
2020-03-24 08:00:00 8.6 17 Este 21 Este 0 966.5 -0.1 89
2020-03-24 07:00:00 8 16 Este 23 Este 0 966.6 -0.2 89
2020-03-24 06:00:00 7.8 17 Este 21 Este 0 966.4 -0.7 89
2020-03-24 05:00:00 8 13 Este 20 Este 0 966.6 -0.8 88
2020-03-24 04:00:00 8.7 13 Este 18 Este 0 966.8 -0.8 85
2020-03-24 03:00:00 8.6 8 Nordeste 14 Este 0 967.1 -0.9 88
2020-03-24 02:00:00 9.7 8 Nordeste 20 Este 0 967.4 -0.8 82
2020-03-24 01:00:00 10.3 12 Nordeste 16 Nordeste 0 967.6 0 78
2020-03-24 00:00:00 9.6 14 Nordeste 20 Este 0.4 968 0.6 85
2020-03-23 23:00:00 9.9 18 Nordeste 24 Nordeste 0.6 968.2 1.3 81
2020-03-23 22:00:00 10.7 5 Sur 9 Sur 0 967.6 1.1 69
2020-03-23 21:00:00 11.4 8 Este 21 Nordeste 0 967.4 1 64
2020-03-23 20:00:00 11.9 18 Nordeste 23 Nordeste 0 966.9 0.2 61
2020-03-23 19:00:00 12.9 16 Nordeste 27 Norte 0 966.5 0.1 57
2020-03-23 18:00:00 12.9 19 Nordeste 37 Este 0 966.4 -0.4 56
2020-03-23 17:00:00 12.1 24 Este 52 Este 0.2 966.7 -0.9 67
2020-03-23 16:00:00 14.8 22 Nordeste 35 Norte 0 966.4 -1.8 55
2020-03-23 15:00:00 15.2 19 Nordeste 35 Nordeste 0 966.8 -1.8 52
2020-03-23 14:00:00 15 22 Nordeste 33 Nordeste 0 967.6 -1.1 51
2020-03-23 13:00:00 14.1 24 Nordeste 33 Nordeste 0 968.2 -0.4 59
2020-03-23 12:00:00 13.3 19 Nordeste 32 Nordeste 0 968.6 0.2 66
2020-03-23 11:00:00 12.9 22 Este 29 Este 0 968.7 0.5 70
2020-03-23 10:00:00 12.1 22 Este 27 Este 0 968.6 0.7 74
2020-03-23 09:00:00 10.1 13 Este 17 Este 0 968.4 0.8 86
2020-03-23 08:00:00 8.4 5 Este 13 Norte 0 968.2 0.7 88
2020-03-23 07:00:00 8.1 4 Nordeste 9 Este 0 967.9 0.6 90
2020-03-23 06:00:00 8.8 6 Este 9 Este 0 967.6 0.1 90
2020-03-23 05:00:00 8.8 4 Este 6 Sudeste 0 967.5 -0.3 87
2020-03-23 04:00:00 9.2 2 Norte 12 Este 0 967.3 -0.7 87
2020-03-23 03:00:00 9.5 7 Nordeste 12 Nordeste 0 967.5 -0.9 85
2020-03-23 02:00:00 9.9 8 Nordeste 10 Nordeste 0 967.8 -0.5 83
2020-03-23 01:00:00 9.4 6 Este 14 Este 0 968 -0.3 85
2020-03-23 00:00:00 9.9 7 Este 10 Este 0 968.4 0.5 81
2020-03-22 23:00:00 10.5 0 Calma 5 Este 0 968.3 1 75
2020-03-22 22:00:00 10.7 5 Nordeste 12 Este 0 968.3 1.6 71
2020-03-22 21:00:00 11.8 8 Norte 12 Noroeste 0 967.9 1.7 67
2020-03-22 20:00:00 12.1 0 Calma 8 Este 0 967.3 1.3 64
2020-03-22 19:00:00 12.8 8 Este 23 Este 0 966.7 0.7 63
2020-03-22 18:00:00 15.6 6 Sudeste 11 Sudeste 0 966.2 0 51
2020-03-22 17:00:00 13.8 9 Este 22 Este 0 966 -0.7 55
2020-03-22 16:00:00 14.7 9 Este 20 Nordeste 0 966 -1 55
2020-03-22 15:00:00 14.3 15 Nordeste 23 Nordeste 0 966.2 -1.2 55
2020-03-22 14:00:00 13.7 15 Este 29 Nordeste 0 966.7 -0.6 57
2020-03-22 13:00:00 12.8 18 Nordeste 25 Este 0 967 0.2 64
2020-03-22 12:00:00 11.8 16 Este 30 Este 0 967.4 1.3 69
2020-03-22 11:00:00 10.7 19 Este 30 Nordeste 0 967.3 1.5 77
2020-03-22 10:00:00 10.1 20 Nordeste 32 Este 0 966.8 1.3 79
2020-03-22 09:00:00 9.3 17 Nordeste 23 Nordeste 0 966.1 0.8 82
2020-03-22 08:00:00 7.5 10 Nordeste 18 Nordeste 0 965.8 0.9 86
2020-03-22 07:00:00 7.9 12 Nordeste 16 Nordeste 0 965.5 0.6 88
2020-03-22 06:00:00 7.8 9 Nordeste 14 Nordeste 0 965.3 0.2 89
2020-03-22 05:00:00 7.9 10 Nordeste 13 Nordeste 0 964.9 -0.3 89
2020-03-22 04:00:00 7.8 10 Este 15 Nordeste 0 964.9 -0.6 89
2020-03-22 03:00:00 7.9 9 Nordeste 12 Nordeste 0 965.1 -0.6 91
2020-03-22 02:00:00 7.9 7 Nordeste 11 Nordeste 0.2 965.2 -0.5 91
2020-03-22 01:00:00 8.2 7 Nordeste 9 Nordeste 0.4 965.5 -0.1 91
2020-03-22 00:00:00 8.2 4 Este 8 Nordeste 0.6 965.7 0.5 90
2020-03-21 23:00:00 8.5 4 Este 10 Norte 0.2 965.7 1.1 89
2020-03-21 22:00:00 8.6 2 Nordeste 5 Sur 0 965.6 1.1 88
2020-03-21 21:00:00 8.5 2 Sudeste 6 Sur 0 965.2 1 87
2020-03-21 20:00:00 8.6 3 Sur 9 Noroeste 1 964.6 0.3 87
2020-03-21 19:00:00 8.5 5 Nordeste 10 Sudeste 2.6 964.5 -0.2 88
2020-03-21 18:00:00 9 5 Sudeste 10 Sur 1.6 964.2 -0.6 85
2020-03-21 17:00:00 9.7 4 Noroeste 13 Este 1 964.3 -1 83
2020-03-21 16:00:00 9.9 7 Sudeste 33 Sudeste 3.4 964.7 -1.3 82
2020-03-21 15:00:00 11.7 15 Este 39 Sudeste 0 964.8 -1.8 75
2020-03-21 14:00:00 13.2 21 Sudeste 32 Sudeste 0 965.3 -1.9 61
2020-03-21 13:00:00 12.7 17 Sur 35 Sur 0 966 -1.2 67
2020-03-21 12:00:00 12.4 14 Sudeste 27 Sudeste 0 966.6 -0.6 62
2020-03-21 11:00:00 11.6 14 Sur 24 Sudoeste 0 967.2 0.2 65
2020-03-21 10:00:00 11.3 4 Este 13 Este 0 967.2 0.5 75
2020-03-21 09:00:00 9.4 6 Nordeste 10 Nordeste 0 967.2 0.4 82
2020-03-21 08:00:00 7.8 2 Sur 7 Sudoeste 0 967 0 91
2020-03-21 07:00:00 7.4 4 Sudoeste 11 Sudoeste 0 966.7 -0.3 92
2020-03-21 06:00:00 7.9 10 Sudoeste 23 Sudoeste 0.2 966.8 -0.4 91
2020-03-21 05:00:00 8.2 13 Sudoeste 21 Sudoeste 0 967 0.2 92
2020-03-21 04:00:00 8.5 11 Sudoeste 22 Sudoeste 0 967 -0.4 92
2020-03-21 03:00:00 8.6 11 Sudoeste 35 Sudoeste 0 967.2 -0.4 92
2020-03-21 02:00:00 8.8 14 Oeste 24 Sudoeste 1.6 966.8 -0.7 93
2020-03-21 01:00:00 9.2 13 Sudoeste 23 Sudoeste 5.4 967.4 0 93
2020-03-21 00:00:00 10.1 5 Sudoeste 15 Sudoeste 3 967.6 0.9 92
2020-03-20 23:00:00 10.1 11 Sudoeste 19 Sudoeste 3.6 967.5 0.7 92
2020-03-20 22:00:00 10.1 10 Sur 26 Noroeste 4.4 967.4 0.8 91
2020-03-20 21:00:00 9.9 23 Oeste 41 Oeste 8.6 966.7 -0.3 91
2020-03-20 20:00:00 11 26 Oeste 35 Oeste 0 966.8 -0.7 87
2020-03-20 19:00:00 13.3 10 Este 15 Nordeste 0 966.6 -1.4 82
2020-03-20 18:00:00 13.5 11 Nordeste 14 Nordeste 0 967 -1.4 82
2020-03-20 17:00:00 13.4 5 Nordeste 8 Nordeste 0.8 967.5 -1.2 86
2020-03-20 16:00:00 13.2 7 Oeste 10 Oeste 0.4 968 -1.2 86
2020-03-20 15:00:00 13.6 3 Sudeste 13 Este 2 968.4 -1.5 85
2020-03-20 14:00:00 14 11 Nordeste 15 Este 0 968.7 -1.3 78
2020-03-20 13:00:00 14.4 8 Este 14 Oeste 0 969.2 -0.6 75
2020-03-20 12:00:00 14.1 11 Oeste 14 Sudoeste 0 969.9 0.6 78
2020-03-20 11:00:00 13.6 9 Sudoeste 15 Sudoeste 0 970 1 80
2020-03-20 10:00:00 12.8 7 Sudoeste 12 Oeste 0 969.8 1.1 84
2020-03-20 09:00:00 12.1 6 Oeste 10 Noroeste 0 969.3 0.7 85
2020-03-20 08:00:00 12.3 3 Oeste 5 Noroeste 0 969 0.3 83
2020-03-20 07:00:00 12.1 3 Oeste 6 Sudoeste 0 968.7 -0.2 81
2020-03-20 06:00:00 12.2 3 Sudoeste 10 Sudoeste 0 968.6 -0.7 80
2020-03-20 05:00:00 12.2 6 Sudoeste 17 Sur 0 968.7 -0.7 79
2020-03-20 04:00:00 12.2 6 Sudoeste 11 Sudoeste 0 968.9 -1 81
2020-03-20 03:00:00 12.9 4 Sudoeste 8 Sudoeste 0 969.3 -0.8 78
2020-03-20 02:00:00 14.5 4 Nordeste 11 Este 0 969.4 -0.6 69
2020-03-20 01:00:00 13.9 3 Norte 7 Oeste 0 969.9 0 73
2020-03-20 00:00:00 14.1 4 Sudoeste 8 Sudoeste 0 970.1 0.2 72
2020-03-19 23:00:00 15.1 6 Sudoeste 13 Oeste 0 970 0.2 66
2020-03-19 22:00:00 15.6 7 Sudoeste 9 Sudoeste 0 969.9 0.1 64
2020-03-19 21:00:00 17.2 3 Sudoeste 8 Este 0 969.9 0.2 54
2020-03-19 20:00:00 17.8 6 Este 10 Este 0 969.8 -0.2 50
2020-03-19 19:00:00 18.3 8 Este 18 Nordeste 0 969.8 -0.6 50
2020-03-19 18:00:00 18.7 15 Nordeste 21 Este 0 969.7 -1.3 49
2020-03-19 17:00:00 19.2 15 Este 23 Nordeste 0 970 -1.9 47
2020-03-19 16:00:00 19.2 13 Este 23 Este 0 970.4 -2.5 47
2020-03-19 15:00:00 18.8 13 Este 24 Nordeste 0 971 -2.4 51
2020-03-19 14:00:00 18.1 15 Este 26 Este 0 971.9 -1.7 53
2020-03-19 13:00:00 17.6 11 Este 21 Sudeste 0 972.9 -0.9 58
2020-03-19 12:00:00 15.4 14 Este 27 Nordeste 0 973.4 -0.1 64
2020-03-19 11:00:00 14.3 21 Nordeste 35 Nordeste 0 973.6 0.1 67
2020-03-19 10:00:00 13.2 18 Este 24 Este 0 973.8 0.2 72
2020-03-19 09:00:00 11.1 19 Este 29 Este 0 973.5 -0.6 77
2020-03-19 08:00:00 7.9 16 Este 23 Este 0 973.5 -0.5 87
2020-03-19 07:00:00 8.3 5 Este 11 Nordeste 0 973.6 -0.8 84
2020-03-19 06:00:00 9.4 2 Este 7 Sur 0 974.1 -0.3 81
2020-03-19 05:00:00 10.1 4 Sudeste 10 Sudoeste 0 974 -0.5 78
2020-03-19 04:00:00 10.6 3 Este 11 Sudoeste 0 974.4 0.5 76
2020-03-19 03:00:00 12.5 10 Este 18 Este 0 974.4 0.4 68
2020-03-19 02:00:00 12.5 16 Nordeste 26 Nordeste 0 974.5 -0.1 68
2020-03-19 01:00:00 13 18 Nordeste 35 Nordeste 0 973.9 -0.4 66
2020-03-19 00:00:00 14.2 28 Nordeste 43 Nordeste 0 974 0 62
2020-03-18 23:00:00 14.5 16 Nordeste 28 Nordeste 0 974.6 1.4 64
2020-03-18 22:00:00 16.4 21 Nordeste 39 Nordeste 0 974.3 1.1 55
2020-03-18 21:00:00 17.9 23 Nordeste 39 Nordeste 0 974 0.9 51
2020-03-18 20:00:00 18.9 27 Nordeste 37 Nordeste 0 973.2 0 46
2020-03-18 19:00:00 19.5 20 Nordeste 32 Nordeste 0 973.2 -0.3 44
2020-03-18 18:00:00 20.3 23 Nordeste 38 Este 0 973.1 -0.6 43
2020-03-18 17:00:00 20.8 24 Nordeste 43 Nordeste 0 973.2 -1.2 43
2020-03-18 16:00:00 20.3 31 Nordeste 45 Nordeste 0 973.5 -1.5 44
2020-03-18 15:00:00 20.2 31 Nordeste 44 Nordeste 0 973.7 -1.4 46
2020-03-18 14:00:00 18.7 34 Este 48 Nordeste 0 974.4 -1 50
2020-03-18 13:00:00 18.5 36 Este 53 Nordeste 0 975 0.1 51
2020-03-18 12:00:00 17 39 Nordeste 50 Nordeste 0 975.1 0 56
2020-03-18 11:00:00 14.7 39 Nordeste 59 Nordeste 0 975.4 0.6 62
2020-03-18 10:00:00 13.7 45 Nordeste 58 Nordeste 0 974.9 0.7 65
2020-03-18 09:00:00 11.8 30 Este 42 Nordeste 0 975.1 1.4 72
2020-03-18 08:00:00 11.4 30 Este 47 Nordeste 0 974.8 1.3 75
2020-03-18 07:00:00 12.1 39 Nordeste 53 Nordeste 0 974.2 0 73
2020-03-18 06:00:00 12.6 44 Nordeste 63 Nordeste 0 973.7 -1.8 73
2020-03-18 05:00:00 12.3 33 Este 63 Nordeste 0 973.5 -1.5 76
2020-03-18 04:00:00 12.8 31 Nordeste 42 Nordeste 0 974.2 -0.7 75
2020-03-18 03:00:00 11.2 21 Nordeste 34 Nordeste 0 975.5 0.2 75
2020-03-18 02:00:00 11.8 28 Nordeste 36 Este 0 975 -0.2 69
2020-03-18 01:00:00 11.7 28 Este 43 Nordeste 0 974.9 -0.8 60
2020-03-18 00:00:00 11.5 24 Nordeste 29 Nordeste 0 975.3 -0.8 58
2020-03-17 23:00:00 12.9 19 Nordeste 36 Nordeste 0 975.2 -0.3 50
2020-03-17 22:00:00 12.8 14 Norte 35 Nordeste 0 975.7 0.8 48
2020-03-17 21:00:00 14 23 Nordeste 28 Nordeste 0 976.1 1.5 43
2020-03-17 20:00:00 14.7 21 Nordeste 41 Nordeste 0 975.5 1 38
2020-03-17 19:00:00 15.5 27 Nordeste 44 Nordeste 0 974.9 0.3 37
2020-03-17 18:00:00 15.9 34 Este 45 Este 0 974.6 0 31
2020-03-17 17:00:00 15.3 27 Nordeste 48 Este 0 974.5 -0.3 37
2020-03-17 16:00:00 15.4 28 Este 48 Este 0 974.6 -0.4 43
2020-03-17 15:00:00 14.1 33 Este 47 Este 0 974.6 -0.1 47
2020-03-17 14:00:00 13.2 30 Este 53 Este 0 974.8 0.5 51
2020-03-17 13:00:00 12.2 43 Este 66 Este 0 975 1.4 56
2020-03-17 12:00:00 11.4 39 Nordeste 60 Este 0 974.7 1.6 65
2020-03-17 11:00:00 9.8 36 Este 58 Nordeste 0 974.3 1.7 71
2020-03-17 10:00:00 7.4 40 Nordeste 53 Nordeste 0 973.6 1.2 78
2020-03-17 09:00:00 6.6 31 Nordeste 45 Nordeste 0 973.1 1.4 82
2020-03-17 08:00:00 5.2 22 Nordeste 33 Este 0.6 972.6 1.4 85
2020-03-17 07:00:00 6 25 Nordeste 37 Este 0 972.4 1.7 81
2020-03-17 06:00:00 6.2 31 Nordeste 39 Nordeste 0 971.7 0.5 79
2020-03-17 05:00:00 6 25 Nordeste 37 Nordeste 0 971.2 -0.2 80
2020-03-17 04:00:00 6 27 Nordeste 39 Nordeste 0 970.7 -1 79
2020-03-17 03:00:00 6 23 Nordeste 33 Norte 0 971.2 -0.7 77
2020-03-17 02:00:00 6 14 Nordeste 26 Nordeste 0 971.4 -0.5 78
2020-03-17 01:00:00 6.5 14 Nordeste 23 Norte 0 971.7 0.2 77
2020-03-17 00:00:00 7.3 13 Norte 21 Norte 0 971.9 0.3 78
2020-03-16 23:00:00 7.2 10 Oeste 22 Oeste 0 971.9 0.9 81
2020-03-16 22:00:00 6.9 14 Oeste 47 Norte 0.4 971.5 0.2 82
2020-03-16 21:00:00 7.5 21 Noroeste 41 Noroeste 1 971.6 0.7 79
2020-03-16 20:00:00 7.7 10 Oeste 24 Oeste 0.4 971 0.4 81
2020-03-16 19:00:00 8 14 Noroeste 43 Noroeste 0.4 971.3 0.3 77
2020-03-16 18:00:00 9.5 14 Noroeste 44 Noroeste 0 970.9 -0.2 67
2020-03-16 17:00:00 10.4 24 Oeste 53 Noroeste 0 970.6 -0.5 60
2020-03-16 16:00:00 11 20 Oeste 45 Noroeste 0 971 -0.2 57
2020-03-16 15:00:00 11.4 31 Noroeste 56 Oeste 0 971.1 -0.7 49
2020-03-16 14:00:00 11.7 25 Noroeste 52 Noroeste 0 971.1 -1 44
2020-03-16 13:00:00 10.4 27 Noroeste 46 Oeste 0 971.2 -1 49
2020-03-16 12:00:00 9.9 27 Oeste 45 Oeste 0 971.8 -0.4 52
2020-03-16 11:00:00 9.2 20 Noroeste 35 Noroeste 0 972.1 0.2 55
2020-03-16 10:00:00 7.4 20 Oeste 38 Oeste 0 972.2 0.8 63
2020-03-16 09:00:00 4.9 14 Oeste 27 Oeste 0 972.2 1.1 81
2020-03-16 08:00:00 2.8 9 Oeste 23 Oeste 0 971.9 1 88
2020-03-16 07:00:00 3.2 8 Sudoeste 19 Sudoeste 0 971.4 0.2 85
2020-03-16 06:00:00 3.2 12 Sudoeste 20 Oeste 0 971.1 -0.5 84
2020-03-16 05:00:00 3.7 14 Oeste 24 Oeste 0 970.9 -0.9 81
2020-03-16 04:00:00 3.9 12 Oeste 30 Noroeste 0 971.2 -0.9 78
2020-03-16 03:00:00 5.6 20 Oeste 29 Noroeste 0 971.6 -0.7 69
2020-03-16 02:00:00 5.3 18 Oeste 30 Oeste 0 971.8 -0.1 76
2020-03-16 01:00:00 6.5 14 Oeste 27 Oeste 0 972.1 0.9 73
2020-03-16 00:00:00 8.4 17 Oeste 40 Noroeste 0 972.3 2.4 66
2020-03-15 23:00:00 9.6 18 Oeste 51 Noroeste 0 971.9 3 66
2020-03-15 22:00:00 11.3 28 Oeste 49 Oeste 0 971.2 2.7 71
2020-03-15 21:00:00 14.2 21 Oeste 40 Oeste 0 969.9 1.2 55
2020-03-15 20:00:00 15.1 25 Oeste 39 Oeste 0 968.9 0.2 64
2020-03-15 19:00:00 16.3 25 Oeste 44 Oeste 0 968.5 -0.4 65
2020-03-15 18:00:00 18.3 29 Oeste 49 Oeste 0 968.7 -0.6 59
2020-03-15 17:00:00 19.9 35 Oeste 46 Sudoeste 0 968.7 -1.5 53
2020-03-15 16:00:00 21.2 25 Sudoeste 39 Sudoeste 0 968.9 -2.3 52
2020-03-15 15:00:00 21.7 25 Sudoeste 37 Sudoeste 0 969.3 -2.5 51
2020-03-15 14:00:00 20.1 17 Sudoeste 31 Sudoeste 0 970.2 -1.9 56
2020-03-15 13:00:00 20.1 17 Sudoeste 30 Sudoeste 0 971.2 -1.1 58
2020-03-15 12:00:00 18.1 22 Sudoeste 30 Sudoeste 0 971.8 -0.1 65
2020-03-15 11:00:00 15.7 5 Sudoeste 8 Sudoeste 0 972.1 0.5 73
2020-03-15 10:00:00 12.1 3 Sudeste 8 Este 0 972.3 0.8 87
2020-03-15 09:00:00 8.8 4 Oeste 6 Sudeste 0 971.9 0.5 92
2020-03-15 08:00:00 8.8 0 Calma 9 Este 0 971.6 0.3 91
2020-03-15 07:00:00 8.4 4 Este 5 Este 0 971.5 -0.1 90
2020-03-15 06:00:00 9.5 0 Calma 6 Sudeste 0 971.4 -0.6 89
2020-03-15 05:00:00 9.8 2 Sur 6 Este 0 971.3 -1.1 88
2020-03-15 04:00:00 10.6 7 Este 9 Este 0 971.6 -1.1 86
2020-03-15 03:00:00 12.1 4 Este 8 Este 0 972 -1 82
2020-03-15 02:00:00 12.3 5 Sudeste 8 Este 0 972.4 -0.7 83
2020-03-15 01:00:00 13.1 4 Este 9 Este 0 972.7 -0.4 80
2020-03-15 00:00:00 14.4 5 Sudoeste 9 Nordeste 0 973 0 73
2020-03-14 23:00:00 15.8 5 Este 8 Nordeste 0 973.1 0.3 69
2020-03-14 22:00:00 16.5 4 Nordeste 9 Sudeste 0 973.1 0.6 64
2020-03-14 21:00:00 18.1 7 Noroeste 12 Noroeste 0 973 0.8 54
2020-03-14 20:00:00 19 6 Oeste 19 Noroeste 0 972.8 0.7 56
2020-03-14 19:00:00 20.6 15 Noroeste 28 Oeste 0 972.5 0.1 50
2020-03-14 18:00:00 22.6 23 Oeste 30 Oeste 0 972.2 -0.7 47
2020-03-14 17:00:00 23.6 21 Oeste 28 Oeste 0 972.1 -1.7 44
2020-03-14 16:00:00 25.4 6 Oeste 13 Sudoeste 0 972.4 -2.1 34
2020-03-14 15:00:00 24.2 4 Oeste 14 Este 0 972.9 -2 34
2020-03-14 14:00:00 22.6 6 Oeste 16 Oeste 0 973.8 -1.5 44
2020-03-14 13:00:00 21.6 5 Sudoeste 12 Sudoeste 0 974.5 -0.9 48
2020-03-14 12:00:00 19.4 6 Sudoeste 12 Sur 0 974.9 -0.3 57
2020-03-14 11:00:00 15.7 3 Este 8 Este 0 975.3 0.8 80
2020-03-14 10:00:00 11.8 4 Este 8 Este 0 975.4 1.3 93
2020-03-14 09:00:00 7.6 3 Este 10 Sudeste 0 975.2 1.4 93
2020-03-14 08:00:00 6.8 3 Sudoeste 7 Sur 0 974.5 0.7 93
2020-03-14 07:00:00 6.6 5 Sudeste 8 Sudeste 0 974.1 0.3 93
2020-03-14 06:00:00 7.2 5 Este 8 Este 0 973.8 -0.5 93
2020-03-14 05:00:00 7.4 5 Este 9 Este 0 973.8 -0.7 93
2020-03-14 04:00:00 8.1 6 Este 11 Este 0 973.8 -0.8 92
2020-03-14 03:00:00 8.1 3 Nordeste 10 Este 0 974.3 -0.3 92
2020-03-14 02:00:00 10 2 Norte 10 Este 0 974.5 -0.1 92
2020-03-14 01:00:00 9.8 3 Sudeste 8 Sudeste 0 974.6 0.3 91
2020-03-14 00:00:00 10.8 2 Sur 9 Este 0 974.6 0.7 88
2020-03-13 23:00:00 11.5 5 Nordeste 7 Nordeste 0 974.6 1.2 86
2020-03-13 22:00:00 12.7 0 Calma 5 Sudoeste 0 974.3 1.2 83
2020-03-13 21:00:00 13 4 Oeste 14 Oeste 0 973.9 1.2 82
2020-03-13 20:00:00 13.8 11 Oeste 19 Oeste 0 973.4 0.8 78
2020-03-13 19:00:00 15.6 16 Oeste 20 Oeste 0 973.1 0.5 71
2020-03-13 18:00:00 18.3 13 Oeste 29 Oeste 0 972.7 -0.1 62
2020-03-13 17:00:00 19.5 18 Oeste 29 Sudoeste 0 972.6 -0.9 55
2020-03-13 16:00:00 19.6 18 Oeste 25 Oeste 0 972.6 -1.7 54
2020-03-13 15:00:00 19.6 14 Oeste 23 Sudoeste 0 972.8 -1.9 58
2020-03-13 14:00:00 17.5 11 Oeste 20 Oeste 0 973.5 -1.1 64
2020-03-13 13:00:00 13.8 10 Oeste 19 Oeste 0 974.3 -0.2 77
2020-03-13 12:00:00 11.3 14 Sudoeste 19 Sudoeste 0 974.7 0.8 90
2020-03-13 11:00:00 10.3 12 Sudoeste 19 Sudoeste 0 974.6 1.1 92
2020-03-13 10:00:00 9.8 13 Oeste 19 Sudoeste 0 974.5 1.3 93
2020-03-13 09:00:00 9.7 14 Sudoeste 20 Sudoeste 0 973.9 0.9 92
2020-03-13 08:00:00 9.8 17 Sudoeste 21 Oeste 0 973.5 0.4 92
2020-03-13 07:00:00 10.6 12 Sudoeste 15 Sudoeste 0 973.2 0.2 92
2020-03-13 06:00:00 11 4 Sudoeste 9 Sudoeste 0 973 -0.2 91
2020-03-13 05:00:00 10.5 6 Sudoeste 11 Sudoeste 0 973.1 -0.4 90
2020-03-13 04:00:00 10.1 0 Calma 7 Oeste 0 973 -0.8 88
2020-03-13 03:00:00 11.3 0 Calma 7 Nordeste 0 973.2 -0.9 88
2020-03-13 02:00:00 12.2 3 Este 4 Este 0 973.5 -0.5 82
2020-03-13 01:00:00 13 2 Sudoeste 6 Sur 0 973.8 0 79
2020-03-13 00:00:00 13.7 4 Este 6 Este 0 974.1 0.5 77
2020-03-12 23:00:00 15 2 Sur 6 Nordeste 0 974 0.9 71
2020-03-12 22:00:00 16 3 Este 6 Este 0 973.8 1 67
2020-03-12 21:00:00 17.4 2 Sudeste 20 Oeste 0 973.6 1 61
2020-03-12 20:00:00 17.7 14 Oeste 23 Oeste 0 973.1 0.6 61
2020-03-12 19:00:00 20.1 16 Oeste 29 Sudoeste 0 972.8 0 51
2020-03-12 18:00:00 22 22 Oeste 32 Sudoeste 0 972.6 -0.4 46
2020-03-12 17:00:00 23.4 22 Sudoeste 32 Oeste 0 972.5 -1.2 38
2020-03-12 16:00:00 24.2 22 Sudoeste 35 Sudoeste 0 972.8 -1.8 36
2020-03-12 15:00:00 22.7 20 Sudoeste 31 Sudoeste 0 973 -1.8 40
2020-03-12 14:00:00 22.6 13 Sudoeste 23 Sudoeste 0 973.7 -1.3 40
2020-03-12 13:00:00 22.1 7 Sudoeste 15 Oeste 0 974.6 -0.1 40
2020-03-12 12:00:00 18.6 4 Sudoeste 8 Este 0 974.8 0.3 65
2020-03-12 11:00:00 15.5 3 Oeste 7 Este 0 975 0.8 71
2020-03-12 10:00:00 13.3 4 Este 9 Este 0 974.7 0.8 76
2020-03-12 09:00:00 11.3 7 Este 15 Este 0 974.5 0.7 79
2020-03-12 08:00:00 10.6 14 Este 17 Este 0 974.2 0.2 80
2020-03-12 07:00:00 10.9 3 Sur 12 Este 0 973.9 -0.4 79
2020-03-12 06:00:00 10.3 4 Sur 12 Este 0 973.8 -1.2 84
2020-03-12 05:00:00 12 7 Este 12 Este 0 974 -1.3 75
2020-03-12 04:00:00 12.1 11 Este 14 Este 0 974.3 -1.2 77
2020-03-12 03:00:00 12.9 2 Sur 10 Este 0 975 -1 75
2020-03-12 02:00:00 13.5 3 Norte 10 Oeste 0 975.3 -0.7 73
2020-03-12 01:00:00 14.6 3 Sudoeste 9 Sudoeste 0 975.5 -0.3 69
2020-03-12 00:00:00 15.9 4 Sudeste 9 Este 0 976 0.4 64
2020-03-11 23:00:00 17.8 2 Sur 9 Sudeste 0 976 0.6 57
2020-03-11 22:00:00 18.7 4 Sudeste 8 Este 0 975.8 0.5 56
2020-03-11 21:00:00 21.5 4 Sudeste 8 Nordeste 0 975.6 0.3 40
2020-03-11 20:00:00 23.7 6 Nordeste 14 Este 0 975.4 -0.4 32
2020-03-11 19:00:00 25.2 5 Nordeste 9 Nordeste 0 975.3 -0.7 29
2020-03-11 18:00:00 26.1 8 Este 15 Sudeste 0 975.3 -1.2 30
2020-03-11 17:00:00 27.4 11 Este 19 Este 0 975.8 -1.5 30
2020-03-11 16:00:00 29.1 4 Este 11 Este 0 976 -1.9 26
2020-03-11 15:00:00 28.3 2 Sudeste 7 Nordeste 0 976.5 -2.1 28
2020-03-11 14:00:00 27.2 2 Este 13 Este 0 977.3 -1.6 30
2020-03-11 13:00:00 25.9 9 Este 18 Este 0 977.9 -1.1 35
2020-03-11 12:00:00 22.7 6 Este 10 Este 0 978.6 -0.3 44
2020-03-11 11:00:00 18.6 3 Sur 6 Sudeste 0 978.9 0.4 58
2020-03-11 10:00:00 14.9 4 Sudeste 13 Sudeste 0 979 0.4 62
2020-03-11 09:00:00 12.7 4 Nordeste 17 Este 0 978.9 0.3 68
2020-03-11 08:00:00 9.4 12 Este 16 Este 0 978.5 0 77
2020-03-11 07:00:00 9.3 7 Sudeste 15 Este 0 978.6 -0.3 76
2020-03-11 06:00:00 9.2 5 Sudoeste 15 Este 0 978.6 -0.7 77
2020-03-11 05:00:00 9.9 7 Este 15 Este 0 978.5 -1.1 75
2020-03-11 04:00:00 11.5 5 Sudeste 9 Este 0 978.9 -1.3 68
2020-03-11 03:00:00 12.5 7 Sudeste 18 Este 0 979.3 -1.2 65
2020-03-11 02:00:00 12.7 7 Este 17 Nordeste 0 979.6 -1 65
2020-03-11 01:00:00 13.8 9 Este 14 Este 0 980.2 -0.1 62
2020-03-11 00:00:00 17.1 9 Este 15 Nordeste 0 980.5 0.4 46
2020-03-10 23:00:00 16.9 10 Este 14 Este 0 980.6 0.8 51
2020-03-10 22:00:00 18.2 10 Este 15 Este 0 980.3 0.5 47
2020-03-10 21:00:00 20.3 6 Este 14 Norte 0 980.1 0.3 39
2020-03-10 20:00:00 23.2 12 Nordeste 13 Nordeste 0 979.8 0 29
2020-03-10 19:00:00 24.7 5 Nordeste 9 Este 0 979.8 -0.5 29
2020-03-10 18:00:00 26 7 Sudeste 16 Este 0 979.8 -0.9 27
2020-03-10 17:00:00 26 10 Este 17 Este 0 979.8 -1.6 27
2020-03-10 16:00:00 26.7 6 Este 16 Este 0 980.3 -1.7 26
2020-03-10 15:00:00 25.5 12 Este 17 Nordeste 0 980.7 -1.7 26
2020-03-10 14:00:00 24.2 8 Este 21 Este 0 981.4 -1.4 31
2020-03-10 13:00:00 21.8 13 Nordeste 22 Nordeste 0 982 -0.3 34
2020-03-10 12:00:00 19.8 18 Este 22 Este 0 982.4 0.4 38
2020-03-10 11:00:00 17 13 Nordeste 29 Nordeste 0 982.8 1.4 43
2020-03-10 10:00:00 13.7 22 Nordeste 27 Nordeste 0 982.3 1.3 53
2020-03-10 09:00:00 10.3 18 Este 23 Este 0 982 1.1 70
2020-03-10 08:00:00 7.1 14 Nordeste 19 Nordeste 0 981.4 0.4 80
2020-03-10 07:00:00 6.8 8 Este 20 Este 0 981 -0.5 81
2020-03-10 06:00:00 6.5 11 Este 17 Este 0 980.9 -1.1 84
2020-03-10 05:00:00 7 7 Este 16 Este 0 981 -0.9 82
2020-03-10 04:00:00 8.5 8 Este 9 Nordeste 0 981.5 -0.7 77
2020-03-10 03:00:00 9.6 4 Sudoeste 8 Sudeste 0 982 -0.1 72
2020-03-10 02:00:00 10 2 Sur 13 Noroeste 0 981.9 -0.4 69
2020-03-10 01:00:00 12 5 Este 11 Sudeste 0 982.2 0.3 62
2020-03-10 00:00:00 11.6 9 Este 11 Sudeste 0 982.1 0.8 62
2020-03-09 23:00:00 13.4 6 Nordeste 12 Sudeste 0 982.3 1.1 55
2020-03-09 22:00:00 14.4 6 Noroeste 18 Noroeste 0 981.9 1.1 51
2020-03-09 21:00:00 14.7 8 Oeste 15 Oeste 0 981.3 0.2 48
2020-03-09 20:00:00 16.3 12 Noroeste 18 Noroeste 0 981.2 0.1 42
2020-03-09 19:00:00 18 11 Oeste 24 Noroeste 0 980.8 -0.4 39
2020-03-09 18:00:00 19 17 Noroeste 32 Noroeste 0 981.1 -0.7 30
2020-03-09 17:00:00 19.9 19 Noroeste 33 Noroeste 0 981.1 -1.2 26
2020-03-09 16:00:00 20.8 13 Oeste 28 Noroeste 0 981.2 -1.6 25
2020-03-09 15:00:00 19.8 14 Noroeste 30 Noroeste 0 981.8 -1.5 24
2020-03-09 14:00:00 19.3 13 Noroeste 28 Noroeste 0 982.3 -1.1 27
2020-03-09 13:00:00 18.4 19 Norte 30 Noroeste 0 982.8 -0.6 26
2020-03-09 12:00:00 14.6 6 Sudeste 12 Este 0 983.3 0.3 70
2020-03-09 11:00:00 9.5 3 Nordeste 8 Nordeste 0 983.4 0.3 92
2020-03-09 10:00:00 8 3 Este 10 Este 0 983.4 0.2 93
2020-03-09 09:00:00 7.7 4 Este 9 Este 0 983 0.4 93
2020-03-09 08:00:00 7.5 2 Norte 9 Noroeste 0 983.1 0.6 93
2020-03-09 07:00:00 7.9 6 Noroeste 8 Noroeste 0 983.2 0.6 92
2020-03-09 06:00:00 8.4 2 Noroeste 8 Norte 0 982.6 -0.5 92
2020-03-09 05:00:00 8.3 4 Sudoeste 10 Sudoeste 0 982.5 -0.7 91
2020-03-09 04:00:00 7.8 6 Oeste 9 Sudoeste 0 982.6 -0.5 90
2020-03-09 03:00:00 8.1 5 Sur 10 Oeste 0 983.1 0 89
2020-03-09 02:00:00 8.3 6 Oeste 14 Oeste 0 983.2 0 86
2020-03-09 01:00:00 9.3 7 Sudoeste 9 Sudoeste 0 983.1 -0.1 82
2020-03-09 00:00:00 10.4 4 Sudoeste 11 Oeste 0 983.1 0.3 76